sensor_id;sensor_type;location;lat;lon;timestamp;P1;durP1;ratioP1;P2;durP2;ratioP2
6531;SDS011;3299;42.004;24.868;2022-09-03T00:00:55;5.38;;;4.30;;
6531;SDS011;3299;42.004;24.868;2022-09-03T00:03:39;6.63;;;4.13;;
6531;SDS011;3299;42.004;24.868;2022-09-03T00:06:13;8.32;;;4.10;;
6531;SDS011;3299;42.004;24.868;2022-09-03T00:08:47;7.47;;;4.30;;
6531;SDS011;3299;42.004;24.868;2022-09-03T00:14:06;4.40;;;4.10;;
6531;SDS011;3299;42.004;24.868;2022-09-03T00:16:47;5.60;;;4.55;;
6531;SDS011;3299;42.004;24.868;2022-09-03T00:19:17;5.15;;;4.30;;
6531;SDS011;3299;42.004;24.868;2022-09-03T00:21:59;8.38;;;4.75;;
6531;SDS011;3299;42.004;24.868;2022-09-03T00:24:33;7.40;;;5.10;;
6531;SDS011;3299;42.004;24.868;2022-09-03T00:27:04;6.95;;;5.22;;
6531;SDS011;3299;42.004;24.868;2022-09-03T00:29:34;10.75;;;5.43;;
6531;SDS011;3299;42.004;24.868;2022-09-03T00:32:09;5.45;;;4.95;;
6531;SDS011;3299;42.004;24.868;2022-09-03T00:34:42;6.32;;;4.55;;
6531;SDS011;3299;42.004;24.868;2022-09-03T00:37:13;5.45;;;4.28;;
6531;SDS011;3299;42.004;24.868;2022-09-03T00:39:38;11.05;;;4.53;;
6531;SDS011;3299;42.004;24.868;2022-09-03T00:52:43;5.55;;;4.60;;
6531;SDS011;3299;42.004;24.868;2022-09-03T01:00:29;6.63;;;4.22;;
6531;SDS011;3299;42.004;24.868;2022-09-03T01:03:05;7.05;;;3.83;;
6531;SDS011;3299;42.004;24.868;2022-09-03T01:08:42;10.95;;;4.68;;
6531;SDS011;3299;42.004;24.868;2022-09-03T01:25:14;6.88;;;5.20;;
6531;SDS011;3299;42.004;24.868;2022-09-03T01:28:10;8.25;;;4.93;;
6531;SDS011;3299;42.004;24.868;2022-09-03T01:30:39;10.63;;;5.50;;
6531;SDS011;3299;42.004;24.868;2022-09-03T01:44:14;5.82;;;5.05;;
6531;SDS011;3299;42.004;24.868;2022-09-03T01:46:54;5.15;;;4.75;;
6531;SDS011;3299;42.004;24.868;2022-09-03T01:49:39;5.90;;;4.90;;
6531;SDS011;3299;42.004;24.868;2022-09-03T01:52:44;6.35;;;5.13;;
6531;SDS011;3299;42.004;24.868;2022-09-03T02:00:36;5.65;;;4.95;;
6531;SDS011;3299;42.004;24.868;2022-09-03T02:03:06;6.95;;;5.03;;
6531;SDS011;3299;42.004;24.868;2022-09-03T02:05:35;6.15;;;5.35;;
6531;SDS011;3299;42.004;24.868;2022-09-03T02:08:02;7.18;;;5.22;;
6531;SDS011;3299;42.004;24.868;2022-09-03T02:13:06;6.50;;;5.03;;
6531;SDS011;3299;42.004;24.868;2022-09-03T02:15:39;5.20;;;4.70;;
6531;SDS011;3299;42.004;24.868;2022-09-03T02:18:09;9.10;;;5.63;;
6531;SDS011;3299;42.004;24.868;2022-09-03T02:20:41;7.15;;;5.25;;
6531;SDS011;3299;42.004;24.868;2022-09-03T02:23:06;5.35;;;4.55;;
6531;SDS011;3299;42.004;24.868;2022-09-03T02:25:34;8.55;;;4.90;;
6531;SDS011;3299;42.004;24.868;2022-09-03T02:28:03;7.25;;;4.68;;
6531;SDS011;3299;42.004;24.868;2022-09-03T02:30:30;11.70;;;5.40;;
6531;SDS011;3299;42.004;24.868;2022-09-03T02:32:55;9.63;;;6.10;;
6531;SDS011;3299;42.004;24.868;2022-09-03T02:35:21;7.07;;;4.65;;
6531;SDS011;3299;42.004;24.868;2022-09-03T02:37:46;15.10;;;5.68;;
6531;SDS011;3299;42.004;24.868;2022-09-03T02:40:12;10.93;;;5.15;;
6531;SDS011;3299;42.004;24.868;2022-09-03T02:42:37;7.38;;;5.03;;
6531;SDS011;3299;42.004;24.868;2022-09-03T02:45:13;11.00;;;6.47;;
6531;SDS011;3299;42.004;24.868;2022-09-03T02:47:45;8.73;;;5.20;;
6531;SDS011;3299;42.004;24.868;2022-09-03T02:50:14;7.03;;;4.70;;
6531;SDS011;3299;42.004;24.868;2022-09-03T02:52:39;7.15;;;4.72;;
6531;SDS011;3299;42.004;24.868;2022-09-03T02:55:05;4.88;;;4.35;;
6531;SDS011;3299;42.004;24.868;2022-09-03T02:57:30;10.63;;;4.55;;
6531;SDS011;3299;42.004;24.868;2022-09-03T02:59:56;5.65;;;5.15;;
6531;SDS011;3299;42.004;24.868;2022-09-03T03:02:21;5.55;;;4.25;;
6531;SDS011;3299;42.004;24.868;2022-09-03T03:04:46;8.23;;;4.68;;
6531;SDS011;3299;42.004;24.868;2022-09-03T03:07:12;6.05;;;4.85;;
6531;SDS011;3299;42.004;24.868;2022-09-03T03:09:37;8.77;;;4.80;;
6531;SDS011;3299;42.004;24.868;2022-09-03T03:12:02;5.40;;;4.90;;
6531;SDS011;3299;42.004;24.868;2022-09-03T03:14:28;4.78;;;4.30;;
6531;SDS011;3299;42.004;24.868;2022-09-03T03:16:54;6.80;;;5.00;;
6531;SDS011;3299;42.004;24.868;2022-09-03T03:19:19;7.40;;;5.43;;
6531;SDS011;3299;42.004;24.868;2022-09-03T03:21:44;9.27;;;4.65;;
6531;SDS011;3299;42.004;24.868;2022-09-03T03:24:10;6.45;;;4.63;;
6531;SDS011;3299;42.004;24.868;2022-09-03T03:26:35;7.03;;;4.50;;
6531;SDS011;3299;42.004;24.868;2022-09-03T03:29:01;12.68;;;5.05;;
6531;SDS011;3299;42.004;24.868;2022-09-03T03:31:31;8.77;;;5.38;;
6531;SDS011;3299;42.004;24.868;2022-09-03T03:33:58;9.18;;;5.35;;
6531;SDS011;3299;42.004;24.868;2022-09-03T03:36:26;7.00;;;5.05;;
6531;SDS011;3299;42.004;24.868;2022-09-03T03:38:54;10.88;;;5.70;;
6531;SDS011;3299;42.004;24.868;2022-09-03T03:41:23;9.23;;;5.75;;
6531;SDS011;3299;42.004;24.868;2022-09-03T03:43:55;10.10;;;5.30;;
6531;SDS011;3299;42.004;24.868;2022-09-03T03:46:23;8.30;;;5.38;;
6531;SDS011;3299;42.004;24.868;2022-09-03T03:48:49;8.15;;;5.32;;
6531;SDS011;3299;42.004;24.868;2022-09-03T03:51:16;8.27;;;4.95;;
6531;SDS011;3299;42.004;24.868;2022-09-03T03:53:43;7.75;;;5.20;;
6531;SDS011;3299;42.004;24.868;2022-09-03T03:56:11;5.07;;;4.72;;
6531;SDS011;3299;42.004;24.868;2022-09-03T03:58:38;7.07;;;5.18;;
6531;SDS011;3299;42.004;24.868;2022-09-03T04:01:15;7.80;;;5.43;;
6531;SDS011;3299;42.004;24.868;2022-09-03T04:03:43;7.60;;;4.97;;
6531;SDS011;3299;42.004;24.868;2022-09-03T04:06:10;7.13;;;4.63;;
6531;SDS011;3299;42.004;24.868;2022-09-03T04:08:38;7.78;;;4.95;;
6531;SDS011;3299;42.004;24.868;2022-09-03T04:11:05;6.53;;;5.63;;
6531;SDS011;3299;42.004;24.868;2022-09-03T04:13:39;5.70;;;4.85;;
6531;SDS011;3299;42.004;24.868;2022-09-03T04:16:08;6.93;;;4.95;;
6531;SDS011;3299;42.004;24.868;2022-09-03T04:18:38;5.15;;;4.75;;
6531;SDS011;3299;42.004;24.868;2022-09-03T04:21:05;7.88;;;4.90;;
6531;SDS011;3299;42.004;24.868;2022-09-03T04:23:33;6.40;;;5.38;;
6531;SDS011;3299;42.004;24.868;2022-09-03T04:26:00;5.25;;;4.55;;
6531;SDS011;3299;42.004;24.868;2022-09-03T04:28:26;5.80;;;4.45;;
6531;SDS011;3299;42.004;24.868;2022-09-03T04:30:52;6.82;;;5.20;;
6531;SDS011;3299;42.004;24.868;2022-09-03T04:33:18;9.45;;;4.95;;
6531;SDS011;3299;42.004;24.868;2022-09-03T04:35:44;8.30;;;4.97;;
6531;SDS011;3299;42.004;24.868;2022-09-03T04:38:09;6.18;;;5.18;;
6531;SDS011;3299;42.004;24.868;2022-09-03T04:40:35;6.80;;;5.10;;
6531;SDS011;3299;42.004;24.868;2022-09-03T04:43:01;6.00;;;4.53;;
6531;SDS011;3299;42.004;24.868;2022-09-03T04:45:27;8.00;;;4.50;;
6531;SDS011;3299;42.004;24.868;2022-09-03T04:50:23;4.70;;;4.30;;
6531;SDS011;3299;42.004;24.868;2022-09-03T04:52:48;5.03;;;4.50;;
6531;SDS011;3299;42.004;24.868;2022-09-03T04:55:13;4.50;;;4.20;;
6531;SDS011;3299;42.004;24.868;2022-09-03T04:57:40;9.50;;;4.43;;
6531;SDS011;3299;42.004;24.868;2022-09-03T05:00:07;6.68;;;4.50;;
6531;SDS011;3299;42.004;24.868;2022-09-03T05:02:35;6.25;;;4.45;;
6531;SDS011;3299;42.004;24.868;2022-09-03T05:05:01;4.75;;;4.35;;
6531;SDS011;3299;42.004;24.868;2022-09-03T05:07:26;5.05;;;4.35;;
6531;SDS011;3299;42.004;24.868;2022-09-03T05:09:52;8.70;;;4.72;;
6531;SDS011;3299;42.004;24.868;2022-09-03T05:12:18;5.85;;;4.85;;
6531;SDS011;3299;42.004;24.868;2022-09-03T05:14:44;6.95;;;4.85;;
6531;SDS011;3299;42.004;24.868;2022-09-03T05:17:10;4.50;;;4.00;;
6531;SDS011;3299;42.004;24.868;2022-09-03T05:19:35;8.38;;;4.75;;
6531;SDS011;3299;42.004;24.868;2022-09-03T05:22:01;5.40;;;4.05;;
6531;SDS011;3299;42.004;24.868;2022-09-03T05:24:26;6.50;;;4.47;;
6531;SDS011;3299;42.004;24.868;2022-09-03T05:26:51;5.40;;;4.30;;
6531;SDS011;3299;42.004;24.868;2022-09-03T05:29:17;4.53;;;4.13;;
6531;SDS011;3299;42.004;24.868;2022-09-03T05:31:44;6.90;;;4.82;;
6531;SDS011;3299;42.004;24.868;2022-09-03T05:34:09;5.00;;;4.03;;
6531;SDS011;3299;42.004;24.868;2022-09-03T05:36:35;4.63;;;4.07;;
6531;SDS011;3299;42.004;24.868;2022-09-03T05:39:03;5.40;;;3.83;;
6531;SDS011;3299;42.004;24.868;2022-09-03T05:41:29;7.55;;;4.25;;
6531;SDS011;3299;42.004;24.868;2022-09-03T05:43:56;4.18;;;3.80;;
6531;SDS011;3299;42.004;24.868;2022-09-03T05:46:26;6.63;;;3.97;;
6531;SDS011;3299;42.004;24.868;2022-09-03T05:48:59;6.22;;;4.55;;
6531;SDS011;3299;42.004;24.868;2022-09-03T05:51:26;4.45;;;4.03;;
6531;SDS011;3299;42.004;24.868;2022-09-03T05:53:52;9.77;;;4.38;;
6531;SDS011;3299;42.004;24.868;2022-09-03T05:56:19;4.75;;;4.28;;
6531;SDS011;3299;42.004;24.868;2022-09-03T05:58:49;7.35;;;4.03;;
6531;SDS011;3299;42.004;24.868;2022-09-03T06:03:55;4.03;;;3.63;;
6531;SDS011;3299;42.004;24.868;2022-09-03T06:06:23;5.75;;;3.95;;
6531;SDS011;3299;42.004;24.868;2022-09-03T06:08:50;7.00;;;4.05;;
6531;SDS011;3299;42.004;24.868;2022-09-03T06:11:17;6.95;;;4.45;;
6531;SDS011;3299;42.004;24.868;2022-09-03T06:13:42;4.05;;;3.70;;
6531;SDS011;3299;42.004;24.868;2022-09-03T06:16:08;6.65;;;4.68;;
6531;SDS011;3299;42.004;24.868;2022-09-03T06:18:33;6.63;;;4.72;;
6531;SDS011;3299;42.004;24.868;2022-09-03T06:21:00;8.27;;;4.32;;
6531;SDS011;3299;42.004;24.868;2022-09-03T06:23:27;4.70;;;4.30;;
6531;SDS011;3299;42.004;24.868;2022-09-03T06:28:29;4.38;;;3.92;;
6531;SDS011;3299;42.004;24.868;2022-09-03T06:30:56;5.18;;;3.88;;
6531;SDS011;3299;42.004;24.868;2022-09-03T06:33:23;5.95;;;4.15;;
6531;SDS011;3299;42.004;24.868;2022-09-03T06:35:51;6.45;;;4.75;;
6531;SDS011;3299;42.004;24.868;2022-09-03T06:38:24;5.68;;;4.00;;
6531;SDS011;3299;42.004;24.868;2022-09-03T06:40:52;5.30;;;4.30;;
6531;SDS011;3299;42.004;24.868;2022-09-03T06:43:21;8.23;;;4.43;;
6531;SDS011;3299;42.004;24.868;2022-09-03T06:45:54;4.40;;;3.90;;
6531;SDS011;3299;42.004;24.868;2022-09-03T06:48:28;4.50;;;4.13;;
6531;SDS011;3299;42.004;24.868;2022-09-03T06:50:59;4.95;;;4.25;;
6531;SDS011;3299;42.004;24.868;2022-09-03T06:53:28;5.75;;;4.10;;
6531;SDS011;3299;42.004;24.868;2022-09-03T06:56:02;6.53;;;5.05;;
6531;SDS011;3299;42.004;24.868;2022-09-03T06:58:33;4.53;;;4.20;;
6531;SDS011;3299;42.004;24.868;2022-09-03T07:01:06;9.35;;;5.22;;
6531;SDS011;3299;42.004;24.868;2022-09-03T07:03:34;6.30;;;5.70;;
6531;SDS011;3299;42.004;24.868;2022-09-03T07:06:00;10.07;;;6.13;;
6531;SDS011;3299;42.004;24.868;2022-09-03T07:08:27;10.27;;;5.20;;
6531;SDS011;3299;42.004;24.868;2022-09-03T07:10:53;7.82;;;6.30;;
6531;SDS011;3299;42.004;24.868;2022-09-03T07:13:19;10.57;;;7.13;;
6531;SDS011;3299;42.004;24.868;2022-09-03T07:15:44;7.82;;;6.18;;
6531;SDS011;3299;42.004;24.868;2022-09-03T07:18:10;7.72;;;5.35;;
6531;SDS011;3299;42.004;24.868;2022-09-03T07:20:35;6.65;;;4.60;;
6531;SDS011;3299;42.004;24.868;2022-09-03T07:23:01;6.40;;;4.30;;
6531;SDS011;3299;42.004;24.868;2022-09-03T07:25:26;8.60;;;5.15;;
6531;SDS011;3299;42.004;24.868;2022-09-03T07:27:52;6.00;;;4.85;;
6531;SDS011;3299;42.004;24.868;2022-09-03T07:30:18;7.55;;;5.38;;
6531;SDS011;3299;42.004;24.868;2022-09-03T07:32:44;15.07;;;12.15;;
6531;SDS011;3299;42.004;24.868;2022-09-03T07:35:11;7.07;;;5.85;;
6531;SDS011;3299;42.004;24.868;2022-09-03T07:37:40;6.05;;;5.40;;
6531;SDS011;3299;42.004;24.868;2022-09-03T07:40:07;7.75;;;6.22;;
6531;SDS011;3299;42.004;24.868;2022-09-03T07:42:34;8.93;;;7.30;;
6531;SDS011;3299;42.004;24.868;2022-09-03T07:45:02;8.30;;;7.50;;
6531;SDS011;3299;42.004;24.868;2022-09-03T07:47:29;10.27;;;7.32;;
6531;SDS011;3299;42.004;24.868;2022-09-03T07:49:56;8.32;;;7.50;;
6531;SDS011;3299;42.004;24.868;2022-09-03T07:52:21;7.75;;;7.03;;
6531;SDS011;3299;42.004;24.868;2022-09-03T07:54:47;8.50;;;7.18;;
6531;SDS011;3299;42.004;24.868;2022-09-03T07:57:12;10.07;;;7.13;;
6531;SDS011;3299;42.004;24.868;2022-09-03T07:59:37;9.23;;;7.43;;
6531;SDS011;3299;42.004;24.868;2022-09-03T08:02:03;8.35;;;7.60;;
6531;SDS011;3299;42.004;24.868;2022-09-03T08:07:02;7.22;;;6.50;;
6531;SDS011;3299;42.004;24.868;2022-09-03T08:09:28;8.38;;;7.53;;
6531;SDS011;3299;42.004;24.868;2022-09-03T08:11:53;8.27;;;7.47;;
6531;SDS011;3299;42.004;24.868;2022-09-03T08:14:19;7.88;;;7.07;;
6531;SDS011;3299;42.004;24.868;2022-09-03T08:16:45;7.18;;;6.57;;
6531;SDS011;3299;42.004;24.868;2022-09-03T08:19:12;9.95;;;7.25;;
6531;SDS011;3299;42.004;24.868;2022-09-03T08:21:38;11.23;;;7.50;;
6531;SDS011;3299;42.004;24.868;2022-09-03T08:24:06;9.25;;;6.78;;
6531;SDS011;3299;42.004;24.868;2022-09-03T08:26:33;7.97;;;6.82;;
6531;SDS011;3299;42.004;24.868;2022-09-03T08:29:00;7.50;;;6.78;;
6531;SDS011;3299;42.004;24.868;2022-09-03T08:31:27;9.70;;;7.03;;
6531;SDS011;3299;42.004;24.868;2022-09-03T08:33:54;9.00;;;7.18;;
6531;SDS011;3299;42.004;24.868;2022-09-03T08:36:25;9.45;;;7.00;;
6531;SDS011;3299;42.004;24.868;2022-09-03T08:38:54;9.00;;;6.93;;
6531;SDS011;3299;42.004;24.868;2022-09-03T08:46:57;7.22;;;6.53;;
6531;SDS011;3299;42.004;24.868;2022-09-03T08:52:09;8.05;;;7.18;;
6531;SDS011;3299;42.004;24.868;2022-09-03T08:54:50;7.63;;;6.88;;
6531;SDS011;3299;42.004;24.868;2022-09-03T08:57:19;9.43;;;6.80;;
6531;SDS011;3299;42.004;24.868;2022-09-03T08:59:46;9.93;;;7.03;;
6531;SDS011;3299;42.004;24.868;2022-09-03T09:05:11;7.47;;;6.78;;
6531;SDS011;3299;42.004;24.868;2022-09-03T09:07:49;7.63;;;6.13;;
6531;SDS011;3299;42.004;24.868;2022-09-03T09:10:45;7.82;;;6.80;;
6531;SDS011;3299;42.004;24.868;2022-09-03T09:15:51;7.22;;;6.35;;
6531;SDS011;3299;42.004;24.868;2022-09-03T09:23:46;6.40;;;5.80;;
6531;SDS011;3299;42.004;24.868;2022-09-03T09:26:14;7.53;;;6.78;;
6531;SDS011;3299;42.004;24.868;2022-09-03T09:28:42;6.90;;;6.15;;
6531;SDS011;3299;42.004;24.868;2022-09-03T09:31:15;6.88;;;6.20;;
6531;SDS011;3299;42.004;24.868;2022-09-03T09:33:43;7.20;;;6.47;;
6531;SDS011;3299;42.004;24.868;2022-09-03T09:36:10;7.40;;;6.68;;
6531;SDS011;3299;42.004;24.868;2022-09-03T09:38:40;7.35;;;6.53;;
6531;SDS011;3299;42.004;24.868;2022-09-03T09:41:10;8.65;;;5.70;;
6531;SDS011;3299;42.004;24.868;2022-09-03T09:43:39;6.75;;;6.15;;
6531;SDS011;3299;42.004;24.868;2022-09-03T09:46:07;8.02;;;6.90;;
6531;SDS011;3299;42.004;24.868;2022-09-03T09:48:37;11.52;;;8.77;;
6531;SDS011;3299;42.004;24.868;2022-09-03T09:51:13;7.97;;;6.80;;
6531;SDS011;3299;42.004;24.868;2022-09-03T09:54:24;7.80;;;6.78;;
6531;SDS011;3299;42.004;24.868;2022-09-03T09:57:25;7.32;;;6.63;;
6531;SDS011;3299;42.004;24.868;2022-09-03T09:59:48;7.63;;;6.47;;
6531;SDS011;3299;42.004;24.868;2022-09-03T10:04:45;9.88;;;6.60;;
6531;SDS011;3299;42.004;24.868;2022-09-03T10:10:00;7.47;;;6.68;;
6531;SDS011;3299;42.004;24.868;2022-09-03T10:12:31;7.63;;;7.00;;
6531;SDS011;3299;42.004;24.868;2022-09-03T10:20:19;6.55;;;5.95;;
6531;SDS011;3299;42.004;24.868;2022-09-03T10:23:19;8.00;;;6.53;;
6531;SDS011;3299;42.004;24.868;2022-09-03T10:28:39;7.38;;;6.45;;
6531;SDS011;3299;42.004;24.868;2022-09-03T10:31:28;7.60;;;6.63;;
6531;SDS011;3299;42.004;24.868;2022-09-03T10:56:52;7.13;;;6.40;;
6531;SDS011;3299;42.004;24.868;2022-09-03T11:02:18;7.95;;;6.55;;
6531;SDS011;3299;42.004;24.868;2022-09-03T11:05:05;7.07;;;6.03;;
6531;SDS011;3299;42.004;24.868;2022-09-03T11:07:38;7.40;;;6.10;;
6531;SDS011;3299;42.004;24.868;2022-09-03T11:10:26;7.28;;;5.97;;
6531;SDS011;3299;42.004;24.868;2022-09-03T11:15:32;6.22;;;5.63;;
6531;SDS011;3299;42.004;24.868;2022-09-03T11:20:40;7.30;;;6.05;;
6531;SDS011;3299;42.004;24.868;2022-09-03T11:23:07;8.52;;;6.32;;
6531;SDS011;3299;42.004;24.868;2022-09-03T11:25:40;7.03;;;6.15;;
6531;SDS011;3299;42.004;24.868;2022-09-03T11:36:51;5.85;;;5.20;;
6531;SDS011;3299;42.004;24.868;2022-09-03T11:42:00;6.78;;;6.20;;
6531;SDS011;3299;42.004;24.868;2022-09-03T11:44:49;6.55;;;5.70;;
6531;SDS011;3299;42.004;24.868;2022-09-03T11:49:47;6.45;;;5.80;;
6531;SDS011;3299;42.004;24.868;2022-09-03T11:52:24;7.10;;;5.70;;
6531;SDS011;3299;42.004;24.868;2022-09-03T11:54:51;6.32;;;5.65;;
6531;SDS011;3299;42.004;24.868;2022-09-03T11:57:22;6.22;;;5.63;;
6531;SDS011;3299;42.004;24.868;2022-09-03T11:59:52;6.28;;;5.75;;
6531;SDS011;3299;42.004;24.868;2022-09-03T12:07:48;5.60;;;5.10;;
6531;SDS011;3299;42.004;24.868;2022-09-03T12:10:33;6.13;;;5.68;;
6531;SDS011;3299;42.004;24.868;2022-09-03T12:13:15;5.53;;;5.10;;
6531;SDS011;3299;42.004;24.868;2022-09-03T12:18:32;6.55;;;5.95;;
6531;SDS011;3299;42.004;24.868;2022-09-03T12:21:01;6.50;;;5.88;;
6531;SDS011;3299;42.004;24.868;2022-09-03T12:26:08;5.80;;;5.30;;
6531;SDS011;3299;42.004;24.868;2022-09-03T12:28:40;5.55;;;5.03;;
6531;SDS011;3299;42.004;24.868;2022-09-03T12:31:08;5.40;;;4.90;;
6531;SDS011;3299;42.004;24.868;2022-09-03T12:33:47;5.38;;;4.93;;
6531;SDS011;3299;42.004;24.868;2022-09-03T12:36:21;5.68;;;5.10;;
6531;SDS011;3299;42.004;24.868;2022-09-03T12:38:47;5.43;;;4.53;;
6531;SDS011;3299;42.004;24.868;2022-09-03T12:41:26;5.68;;;4.70;;
6531;SDS011;3299;42.004;24.868;2022-09-03T12:43:54;5.45;;;4.63;;
6531;SDS011;3299;42.004;24.868;2022-09-03T12:46:21;6.65;;;5.95;;
6531;SDS011;3299;42.004;24.868;2022-09-03T12:48:55;6.40;;;5.18;;
6531;SDS011;3299;42.004;24.868;2022-09-03T12:51:26;5.55;;;5.03;;
6531;SDS011;3299;42.004;24.868;2022-09-03T12:53:56;4.90;;;4.50;;
6531;SDS011;3299;42.004;24.868;2022-09-03T12:56:22;6.03;;;4.07;;
6531;SDS011;3299;42.004;24.868;2022-09-03T12:58:49;5.22;;;4.20;;
6531;SDS011;3299;42.004;24.868;2022-09-03T13:01:26;6.13;;;3.90;;
6531;SDS011;3299;42.004;24.868;2022-09-03T13:04:13;4.13;;;3.67;;
6531;SDS011;3299;42.004;24.868;2022-09-03T13:09:14;6.07;;;4.00;;
6531;SDS011;3299;42.004;24.868;2022-09-03T13:11:44;3.85;;;3.55;;
6531;SDS011;3299;42.004;24.868;2022-09-03T13:14:10;3.88;;;3.60;;
6531;SDS011;3299;42.004;24.868;2022-09-03T13:22:29;3.30;;;3.10;;
6531;SDS011;3299;42.004;24.868;2022-09-03T13:27:57;3.10;;;2.90;;
6531;SDS011;3299;42.004;24.868;2022-09-03T13:33:39;3.03;;;2.60;;
6531;SDS011;3299;42.004;24.868;2022-09-03T13:36:12;3.80;;;2.97;;
6531;SDS011;3299;42.004;24.868;2022-09-03T13:44:23;2.03;;;1.92;;
6531;SDS011;3299;42.004;24.868;2022-09-03T13:46:51;2.67;;;2.45;;
6531;SDS011;3299;42.004;24.868;2022-09-03T13:52:40;2.70;;;2.50;;
6531;SDS011;3299;42.004;24.868;2022-09-03T13:55:21;4.45;;;2.63;;
6531;SDS011;3299;42.004;24.868;2022-09-03T13:58:00;1.95;;;1.85;;
6531;SDS011;3299;42.004;24.868;2022-09-03T14:00:39;2.22;;;2.05;;
6531;SDS011;3299;42.004;24.868;2022-09-03T14:03:30;4.60;;;2.33;;
6531;SDS011;3299;42.004;24.868;2022-09-03T14:11:32;2.25;;;1.95;;
6531;SDS011;3299;42.004;24.868;2022-09-03T14:22:24;2.53;;;2.33;;
6531;SDS011;3299;42.004;24.868;2022-09-03T14:24:59;2.60;;;2.40;;
6531;SDS011;3299;42.004;24.868;2022-09-03T14:27:35;2.72;;;2.10;;
6531;SDS011;3299;42.004;24.868;2022-09-03T14:30:01;3.92;;;1.80;;
6531;SDS011;3299;42.004;24.868;2022-09-03T14:33:14;2.22;;;2.10;;
6531;SDS011;3299;42.004;24.868;2022-09-03T14:40:51;2.85;;;2.20;;
6531;SDS011;3299;42.004;24.868;2022-09-03T14:43:37;2.60;;;2.20;;
6531;SDS011;3299;42.004;24.868;2022-09-03T14:46:14;2.22;;;2.03;;
6531;SDS011;3299;42.004;24.868;2022-09-03T14:56:24;1.95;;;1.85;;
6531;SDS011;3299;42.004;24.868;2022-09-03T15:07:35;1.70;;;1.60;;
6531;SDS011;3299;42.004;24.868;2022-09-03T15:12:52;1.02;;;1.02;;
6531;SDS011;3299;42.004;24.868;2022-09-03T15:15:28;1.70;;;1.60;;
6531;SDS011;3299;42.004;24.868;2022-09-03T15:31:19;2.45;;;1.15;;
6531;SDS011;3299;42.004;24.868;2022-09-03T15:36:45;1.45;;;1.35;;
6531;SDS011;3299;42.004;24.868;2022-09-03T15:39:27;1.17;;;1.17;;
6531;SDS011;3299;42.004;24.868;2022-09-03T15:42:03;4.75;;;1.60;;
6531;SDS011;3299;42.004;24.868;2022-09-03T15:44:34;2.78;;;1.55;;
6531;SDS011;3299;42.004;24.868;2022-09-03T15:47:06;2.72;;;2.08;;
6531;SDS011;3299;42.004;24.868;2022-09-03T15:52:46;1.27;;;1.23;;
6531;SDS011;3299;42.004;24.868;2022-09-03T15:55:36;3.20;;;2.88;;
6531;SDS011;3299;42.004;24.868;2022-09-03T16:01:03;3.38;;;1.83;;
6531;SDS011;3299;42.004;24.868;2022-09-03T16:03:40;4.93;;;2.47;;
6531;SDS011;3299;42.004;24.868;2022-09-03T16:06:19;3.42;;;2.20;;
6531;SDS011;3299;42.004;24.868;2022-09-03T16:09:02;2.85;;;1.90;;
6531;SDS011;3299;42.004;24.868;2022-09-03T16:20:23;2.92;;;1.75;;
6531;SDS011;3299;42.004;24.868;2022-09-03T16:22:53;4.53;;;1.88;;
6531;SDS011;3299;42.004;24.868;2022-09-03T16:25:28;3.17;;;2.00;;
6531;SDS011;3299;42.004;24.868;2022-09-03T16:36:04;3.65;;;2.15;;
6531;SDS011;3299;42.004;24.868;2022-09-03T16:41:35;7.15;;;3.70;;
6531;SDS011;3299;42.004;24.868;2022-09-03T16:55:29;4.63;;;3.45;;
6531;SDS011;3299;42.004;24.868;2022-09-03T17:11:54;7.18;;;3.20;;
6531;SDS011;3299;42.004;24.868;2022-09-03T17:14:35;5.93;;;2.92;;
6531;SDS011;3299;42.004;24.868;2022-09-03T17:24:58;5.75;;;3.75;;
6531;SDS011;3299;42.004;24.868;2022-09-03T17:27:42;5.78;;;3.55;;
6531;SDS011;3299;42.004;24.868;2022-09-03T17:44:43;5.50;;;3.53;;
6531;SDS011;3299;42.004;24.868;2022-09-03T17:55:20;7.68;;;4.00;;
6531;SDS011;3299;42.004;24.868;2022-09-03T17:57:49;5.07;;;4.22;;
6531;SDS011;3299;42.004;24.868;2022-09-03T18:03:16;6.38;;;3.92;;
6531;SDS011;3299;42.004;24.868;2022-09-03T18:05:49;5.78;;;4.25;;
6531;SDS011;3299;42.004;24.868;2022-09-03T18:14:16;4.45;;;3.78;;
6531;SDS011;3299;42.004;24.868;2022-09-03T18:22:19;5.25;;;3.50;;
6531;SDS011;3299;42.004;24.868;2022-09-03T18:25:08;8.40;;;3.63;;
6531;SDS011;3299;42.004;24.868;2022-09-03T18:27:57;3.45;;;3.15;;
6531;SDS011;3299;42.004;24.868;2022-09-03T18:30:47;3.50;;;3.25;;
6531;SDS011;3299;42.004;24.868;2022-09-03T18:33:31;3.80;;;3.25;;
6531;SDS011;3299;42.004;24.868;2022-09-03T18:36:15;3.70;;;2.83;;
6531;SDS011;3299;42.004;24.868;2022-09-03T18:39:41;7.03;;;3.30;;
6531;SDS011;3299;42.004;24.868;2022-09-03T18:58:01;7.28;;;3.30;;
6531;SDS011;3299;42.004;24.868;2022-09-03T19:10:27;4.13;;;3.40;;
6531;SDS011;3299;42.004;24.868;2022-09-03T19:13:34;8.52;;;3.85;;
6531;SDS011;3299;42.004;24.868;2022-09-03T19:19:15;4.20;;;3.88;;
6531;SDS011;3299;42.004;24.868;2022-09-03T19:22:06;7.53;;;3.72;;
6531;SDS011;3299;42.004;24.868;2022-09-03T19:24:52;5.07;;;3.97;;
6531;SDS011;3299;42.004;24.868;2022-09-03T19:28:28;8.30;;;3.72;;
6531;SDS011;3299;42.004;24.868;2022-09-03T19:31:17;3.63;;;3.33;;
6531;SDS011;3299;42.004;24.868;2022-09-03T19:40:56;4.05;;;3.28;;
6531;SDS011;3299;42.004;24.868;2022-09-03T19:46:58;3.90;;;3.50;;
6531;SDS011;3299;42.004;24.868;2022-09-03T19:53:04;3.90;;;3.60;;
6531;SDS011;3299;42.004;24.868;2022-09-03T19:55:55;5.72;;;4.20;;
6531;SDS011;3299;42.004;24.868;2022-09-03T19:58:42;4.75;;;3.85;;
6531;SDS011;3299;42.004;24.868;2022-09-03T20:01:33;4.90;;;4.15;;
6531;SDS011;3299;42.004;24.868;2022-09-03T20:04:19;4.45;;;4.05;;
6531;SDS011;3299;42.004;24.868;2022-09-03T20:07:10;4.68;;;4.28;;
6531;SDS011;3299;42.004;24.868;2022-09-03T20:09:54;7.45;;;4.10;;
6531;SDS011;3299;42.004;24.868;2022-09-03T20:12:45;5.75;;;3.67;;
6531;SDS011;3299;42.004;24.868;2022-09-03T20:15:14;5.72;;;4.07;;
6531;SDS011;3299;42.004;24.868;2022-09-03T20:17:48;5.03;;;3.45;;
6531;SDS011;3299;42.004;24.868;2022-09-03T20:23:32;7.72;;;4.10;;
6531;SDS011;3299;42.004;24.868;2022-09-03T20:37:27;8.15;;;4.70;;
6531;SDS011;3299;42.004;24.868;2022-09-03T20:46:09;6.78;;;5.13;;
6531;SDS011;3299;42.004;24.868;2022-09-03T20:51:30;9.50;;;5.40;;
6531;SDS011;3299;42.004;24.868;2022-09-03T20:54:03;7.10;;;4.82;;
6531;SDS011;3299;42.004;24.868;2022-09-03T21:04:50;12.60;;;5.88;;
6531;SDS011;3299;42.004;24.868;2022-09-03T21:27:02;7.43;;;5.57;;
6531;SDS011;3299;42.004;24.868;2022-09-03T21:29:39;8.23;;;5.70;;
6531;SDS011;3299;42.004;24.868;2022-09-03T21:32:10;8.15;;;5.40;;
6531;SDS011;3299;42.004;24.868;2022-09-03T21:37:30;6.05;;;5.47;;
6531;SDS011;3299;42.004;24.868;2022-09-03T21:40:00;6.60;;;4.72;;
6531;SDS011;3299;42.004;24.868;2022-09-03T21:42:31;9.00;;;5.03;;
6531;SDS011;3299;42.004;24.868;2022-09-03T21:45:03;6.82;;;5.30;;
6531;SDS011;3299;42.004;24.868;2022-09-03T21:47:38;6.03;;;5.43;;
6531;SDS011;3299;42.004;24.868;2022-09-03T21:50:15;6.10;;;5.50;;
6531;SDS011;3299;42.004;24.868;2022-09-03T21:52:46;10.52;;;5.80;;
6531;SDS011;3299;42.004;24.868;2022-09-03T21:55:21;7.50;;;5.75;;
6531;SDS011;3299;42.004;24.868;2022-09-03T22:00:44;6.38;;;5.57;;
6531;SDS011;3299;42.004;24.868;2022-09-03T22:03:11;8.63;;;5.55;;
6531;SDS011;3299;42.004;24.868;2022-09-03T22:05:44;7.47;;;6.03;;
6531;SDS011;3299;42.004;24.868;2022-09-03T22:11:14;6.72;;;5.40;;
6531;SDS011;3299;42.004;24.868;2022-09-03T22:13:47;7.00;;;5.15;;
6531;SDS011;3299;42.004;24.868;2022-09-03T22:16:33;5.57;;;5.07;;
6531;SDS011;3299;42.004;24.868;2022-09-03T22:19:01;6.07;;;5.35;;
6531;SDS011;3299;42.004;24.868;2022-09-03T22:24:18;6.95;;;5.47;;
6531;SDS011;3299;42.004;24.868;2022-09-03T22:26:52;9.88;;;5.32;;
6531;SDS011;3299;42.004;24.868;2022-09-03T22:29:39;6.13;;;5.53;;
6531;SDS011;3299;42.004;24.868;2022-09-03T22:40:18;8.95;;;6.07;;
6531;SDS011;3299;42.004;24.868;2022-09-03T22:54:16;8.25;;;6.25;;
6531;SDS011;3299;42.004;24.868;2022-09-03T22:56:54;6.82;;;5.88;;
6531;SDS011;3299;42.004;24.868;2022-09-03T22:59:22;8.32;;;6.05;;
6531;SDS011;3299;42.004;24.868;2022-09-03T23:01:57;7.80;;;6.10;;